Time;durP1;ratioP1;P1;durP2;ratioP2;P2;SDS_P1;SDS_P2;PMS_P1;PMS_P2;Temp;Humidity;BMP_temperature;BMP_pressure;BME280_temperature;BME280_humidity;BME280_pressure;Samples;Min_cycle;Max_cycle;Signal;HPM_P1;HPM_P2
2022/07/28 00:01:04;;;;;;;9.65;1.40;;;;;;;13.57;100.00;96794.13;4968792;28;20293;-73
2022/07/28 00:03:29;;;;;;;4.18;0.90;;;;;;;13.59;100.00;96789.28;4968725;28;20255;-73
2022/07/28 00:05:55;;;;;;;3.40;0.90;;;;;;;13.48;100.00;96801.06;4967098;28;20240;-73
2022/07/28 00:08:20;;;;;;;6.20;1.20;;;;;;;13.47;100.00;96786.00;4964475;28;20046;-73
2022/07/28 00:10:46;;;;;;;7.47;1.00;;;;;;;13.53;100.00;96787.63;4968787;28;20198;-73
2022/07/28 00:13:11;;;;;;;6.90;0.93;;;;;;;13.51;100.00;96779.00;4965843;28;20077;-71
2022/07/28 00:15:37;;;;;;;2.85;0.90;;;;;;;13.42;100.00;96785.94;4967841;28;20034;-71
2022/07/28 00:18:02;;;;;;;3.20;0.90;;;;;;;13.29;100.00;96784.50;4948246;28;20042;-71
2022/07/28 00:20:29;;;;;;;3.58;0.80;;;;;;;13.30;100.00;96793.38;4966004;28;20490;-72
2022/07/28 00:22:55;;;;;;;4.90;0.90;;;;;;;13.23;100.00;96782.03;4968107;28;20481;-72
2022/07/28 00:25:20;;;;;;;6.43;1.13;;;;;;;13.22;100.00;96775.03;4965597;28;20448;-72
2022/07/28 00:27:46;;;;;;;7.43;1.05;;;;;;;13.10;100.00;96781.38;4965072;28;20030;-72
2022/07/28 00:30:11;;;;;;;8.68;1.30;;;;;;;13.22;100.00;96786.59;4967622;28;20284;-72
2022/07/28 00:32:37;;;;;;;2.85;0.85;;;;;;;13.27;100.00;96781.28;4965161;28;20514;-72
2022/07/28 00:35:04;;;;;;;4.40;1.15;;;;;;;13.23;100.00;96784.72;4966276;28;20562;-73
2022/07/28 00:37:30;;;;;;;5.55;1.10;;;;;;;13.20;100.00;96774.50;4969108;28;20057;-72
2022/07/28 00:39:55;;;;;;;5.15;1.00;;;;;;;13.17;100.00;96777.69;4966016;28;20117;-73
2022/07/28 00:42:21;;;;;;;6.47;1.20;;;;;;;13.07;100.00;96773.00;4965349;28;20034;-73
2022/07/28 00:44:46;;;;;;;3.35;1.35;;;;;;;13.00;100.00;96778.63;4968238;28;20045;-73
2022/07/28 00:47:12;;;;;;;7.32;1.00;;;;;;;13.02;100.00;96783.72;4966750;28;20494;-72
2022/07/28 00:49:38;;;;;;;4.22;0.77;;;;;;;13.02;100.00;96776.47;4966337;28;20146;-73
2022/07/28 00:52:06;;;;;;;5.40;1.13;;;;;;;12.92;100.00;96779.09;4966211;28;20113;-73
2022/07/28 00:54:32;;;;;;;3.70;0.82;;;;;;;12.92;100.00;96770.19;4967370;28;20045;-73
2022/07/28 00:56:57;;;;;;;3.22;0.80;;;;;;;12.81;100.00;96769.31;4965147;28;20034;-73
2022/07/28 00:59:24;;;;;;;5.13;1.00;;;;;;;12.77;100.00;96762.84;4968914;28;20038;-72
2022/07/28 01:01:51;;;;;;;5.03;1.00;;;;;;;12.74;100.00;96766.81;4966844;28;20031;-72
2022/07/28 01:04:17;;;;;;;3.60;0.95;;;;;;;12.75;100.00;96770.31;4963996;28;20046;-73
2022/07/28 01:07:08;;;;;;;8.60;1.25;;;;;;;12.77;100.00;96762.84;4967224;28;20506;-72
2022/07/28 01:09:40;;;;;;;;;;;;;;;12.74;100.00;96761.44;4968289;28;20046;-73
2022/07/28 01:12:34;;;;;;;6.78;1.02;;;;;;;12.64;100.00;96773.97;4949624;28;20013;-73
2022/07/28 01:15:10;;;;;;;3.22;1.02;;;;;;;12.70;100.00;96775.66;4965193;28;20038;-73
2022/07/28 01:18:01;;;;;;;4.13;0.82;;;;;;;12.74;100.00;96772.19;4965168;28;20033;-73
2022/07/28 01:20:44;;;;;;;5.35;1.10;;;;;;;12.72;100.00;96765.47;4965139;28;20612;-71
2022/07/28 01:23:18;;;;;;;6.03;1.10;;;;;;;12.69;100.00;96756.06;4963439;28;20034;-71
2022/07/28 01:26:09;;;;;;;5.25;1.10;;;;;;;12.75;100.00;96748.84;4965330;28;20043;-71
2022/07/28 01:28:40;;;;;;;10.38;1.10;;;;;;;12.71;100.00;96748.53;4970645;28;20053;-71
2022/07/28 01:31:08;;;;;;;6.93;1.20;;;;;;;12.69;100.00;96745.31;4971219;28;20561;-71
2022/07/28 01:33:41;;;;;;;5.05;1.10;;;;;;;12.67;100.00;96747.41;4962571;28;20031;-71
2022/07/28 01:36:15;;;;;;;4.50;1.25;;;;;;;12.83;100.00;96751.06;4966240;28;20439;-71
2022/07/28 01:38:42;;;;;;;4.57;1.13;;;;;;;12.91;100.00;96739.84;4966323;28;20045;-71
2022/07/28 01:41:13;;;;;;;8.82;1.40;;;;;;;12.85;100.00;96748.13;4964804;28;20114;-71
2022/07/28 01:43:43;;;;;;;4.47;1.15;;;;;;;12.85;100.00;96748.13;4944922;28;20038;-71
2022/07/28 01:46:10;;;;;;;7.38;1.00;;;;;;;12.82;100.00;96754.81;4967191;28;20426;-71
2022/07/28 01:48:39;;;;;;;5.32;1.17;;;;;;;12.78;100.00;96753.72;4963507;28;20293;-71
2022/07/28 01:51:07;;;;;;;9.38;1.10;;;;;;;12.72;100.00;96749.34;4964063;28;20248;-71
2022/07/28 01:53:35;;;;;;;7.82;1.50;;;;;;;12.72;100.00;96741.31;4965176;28;20062;-71
2022/07/28 01:56:03;;;;;;;6.25;1.02;;;;;;;12.67;100.00;96739.38;4965824;28;20100;-71
2022/07/28 01:58:31;;;;;;;5.85;1.23;;;;;;;12.70;100.00;96741.56;4966530;28;20045;-71
2022/07/28 02:00:58;;;;;;;6.55;1.27;;;;;;;12.55;100.00;96738.72;4964138;28;20050;-72
2022/07/28 02:03:26;;;;;;;2.85;1.10;;;;;;;12.52;100.00;96758.00;4965906;28;20113;-72
2022/07/28 02:05:54;;;;;;;9.38;1.15;;;;;;;12.41;100.00;96754.41;4967398;28;20038;-72
2022/07/28 02:08:22;;;;;;;6.40;1.15;;;;;;;12.29;100.00;96745.69;4962118;28;20066;-72
2022/07/28 02:13:37;;;;;;;5.40;1.10;;;;;;;12.26;100.00;96740.84;4962270;28;20035;-72
2022/07/28 02:16:06;;;;;;;4.00;1.10;;;;;;;12.19;100.00;96718.75;4948426;28;20034;-72
2022/07/28 02:18:33;;;;;;;3.70;1.00;;;;;;;12.22;100.00;96724.44;4963483;28;20141;-72
2022/07/28 02:21:01;;;;;;;6.50;1.27;;;;;;;12.20;100.00;96725.75;4970592;28;20035;-72
2022/07/28 02:23:28;;;;;;;7.13;1.30;;;;;;;12.14;100.00;96722.22;4965829;28;20049;-72
2022/07/28 02:25:54;;;;;;;5.03;1.10;;;;;;;12.10;100.00;96718.41;4970313;28;20046;-72
2022/07/28 02:28:21;;;;;;;8.45;1.20;;;;;;;12.02;100.00;96718.84;4967830;28;20190;-72
2022/07/28 02:30:54;;;;;;;6.57;1.40;;;;;;;11.98;100.00;96718.56;4970535;28;20053;-72
2022/07/28 02:33:22;;;;;;;6.57;1.25;;;;;;;11.97;100.00;96722.28;4968032;28;20486;-73
2022/07/28 02:35:58;;;;;;;3.83;1.20;;;;;;;11.92;100.00;96710.69;4971788;28;20031;-73
2022/07/28 02:38:29;;;;;;;4.75;1.30;;;;;;;11.89;100.00;96714.66;4966294;28;20533;-73
2022/07/28 02:41:00;;;;;;;3.33;0.93;;;;;;;11.89;100.00;96713.88;4970650;28;20541;-72
2022/07/28 02:43:31;;;;;;;9.03;1.13;;;;;;;11.79;100.00;96714.53;4967603;28;20096;-73
2022/07/28 02:45:59;;;;;;;;;;;;;;;11.80;100.00;96718.03;4971451;28;20457;-73
2022/07/28 02:48:29;;;;;;;3.38;1.20;;;;;;;11.82;100.00;96711.38;4968063;28;20095;-72
2022/07/28 02:50:57;;;;;;;;;;;;;;;11.78;100.00;96709.41;4968834;28;20133;-72
2022/07/28 02:53:23;;;;;;;2.65;1.00;;;;;;;11.80;100.00;96712.66;4967840;28;20420;-73
2022/07/28 02:55:50;;;;;;;5.38;1.20;;;;;;;11.71;100.00;96707.72;4967144;28;20048;-73
2022/07/28 02:58:23;;;;;;;6.78;1.30;;;;;;;11.62;100.00;96705.75;4967646;28;20334;-72
2022/07/28 03:00:51;;;;;;;5.95;1.20;;;;;;;11.61;100.00;96706.81;4968777;28;20299;-72
2022/07/28 03:03:17;;;;;;;7.00;1.30;;;;;;;11.62;100.00;96700.38;4968657;28;20134;-72
2022/07/28 03:05:44;;;;;;;3.72;1.13;;;;;;;11.61;100.00;96696.91;4970245;28;20042;-72
2022/07/28 03:08:10;;;;;;;4.68;1.00;;;;;;;11.55;100.00;96697.88;4965325;28;20130;-72
2022/07/28 03:10:36;;;;;;;4.60;1.00;;;;;;;11.49;100.00;96693.50;4968121;28;20561;-72
2022/07/28 03:13:05;;;;;;;4.53;1.20;;;;;;;11.56;100.00;96694.13;4967854;28;20038;-72
2022/07/28 03:15:32;;;;;;;8.48;1.23;;;;;;;11.50;100.00;96699.69;4969484;28;20498;-72
2022/07/28 03:18:03;;;;;;;4.97;1.20;;;;;;;11.48;100.00;96697.25;4968913;28;20326;-72
2022/07/28 03:20:29;;;;;;;4.22;1.17;;;;;;;11.44;100.00;96696.13;4968840;28;20030;-72
2022/07/28 03:22:57;;;;;;;8.07;1.50;;;;;;;11.48;100.00;96696.44;4968458;28;20113;-72
2022/07/28 03:25:31;;;;;;;5.93;1.60;;;;;;;11.48;100.00;96707.16;4969575;28;20034;-72
2022/07/28 03:27:58;;;;;;;7.15;1.20;;;;;;;11.37;100.00;96701.66;4967885;28;20046;-72
2022/07/28 03:30:28;;;;;;;4.65;1.27;;;;;;;11.41;100.00;96708.13;4948316;28;20381;-73
2022/07/28 03:32:58;;;;;;;6.07;1.20;;;;;;;11.36;100.00;96694.69;4970421;28;20034;-73
2022/07/28 03:35:24;;;;;;;2.88;1.02;;;;;;;11.38;100.00;96700.59;4970509;28;20049;-73
2022/07/28 03:37:59;;;;;;;8.25;1.30;;;;;;;11.34;100.00;96704.00;4966784;28;20202;-73
2022/07/28 03:40:27;;;;;;;6.55;1.52;;;;;;;11.30;100.00;96702.91;4967139;28;20308;-73
2022/07/28 03:42:55;;;;;;;3.90;1.08;;;;;;;11.27;100.00;96700.69;4966828;28;20768;-73
2022/07/28 03:45:20;;;;;;;7.15;1.40;;;;;;;11.26;100.00;96699.88;4967636;28;20372;-73
2022/07/28 03:47:54;;;;;;;8.45;1.23;;;;;;;11.27;100.00;96698.84;4967237;28;20042;-73
2022/07/28 03:50:24;;;;;;;5.85;1.30;;;;;;;11.31;100.00;96699.97;4969389;28;20035;-72
2022/07/28 03:52:50;;;;;;;6.68;1.25;;;;;;;11.30;100.00;96684.97;4965921;28;20046;-73
2022/07/28 03:55:16;;;;;;;6.45;1.30;;;;;;;11.26;100.00;96694.53;4968185;28;20031;-73
2022/07/28 03:57:41;;;;;;;6.70;1.30;;;;;;;11.35;100.00;96694.91;4965341;28;20504;-73
2022/07/28 04:00:08;;;;;;;9.27;1.20;;;;;;;11.35;100.00;96693.03;4967029;28;20037;-73
2022/07/28 04:02:42;;;;;;;8.25;1.17;;;;;;;11.37;100.00;96696.31;4966719;28;20037;-73
2022/07/28 04:05:10;;;;;;;4.53;1.33;;;;;;;11.38;100.00;96694.44;4969152;28;20547;-73
2022/07/28 04:07:35;;;;;;;5.88;1.20;;;;;;;11.39;100.00;96693.38;4969719;28;20294;-73
2022/07/28 04:10:01;;;;;;;12.23;1.30;;;;;;;11.39;100.00;96688.81;4967325;28;20050;-72
2022/07/28 04:12:26;;;;;;;5.55;1.20;;;;;;;11.40;100.00;96693.13;4965543;28;20041;-72
2022/07/28 04:14:52;;;;;;;8.00;1.55;;;;;;;11.35;100.00;96693.03;4968706;28;20046;-73
2022/07/28 04:17:17;;;;;;;2.90;0.95;;;;;;;11.36;100.00;96694.69;4966235;28;20093;-73
2022/07/28 04:19:43;;;;;;;6.45;1.10;;;;;;;11.40;100.00;96687.78;4965048;28;20031;-73
2022/07/28 04:22:08;;;;;;;6.65;1.30;;;;;;;11.44;100.00;96694.28;4964472;28;20225;-71
2022/07/28 04:24:33;;;;;;;6.63;1.30;;;;;;;11.41;100.00;96692.06;4966118;28;20049;-72
2022/07/28 04:26:59;;;;;;;6.47;1.40;;;;;;;11.45;100.00;96687.03;4966464;28;20057;-72
2022/07/28 04:29:25;;;;;;;3.40;1.40;;;;;;;11.46;100.00;96685.16;4963106;28;20493;-72
2022/07/28 04:31:50;;;;;;;7.53;1.30;;;;;;;11.49;100.00;96685.47;4965856;28;20315;-72
2022/07/28 04:34:15;;;;;;;7.38;1.58;;;;;;;11.51;100.00;96695.94;4946375;28;20038;-72
2022/07/28 04:36:42;;;;;;;7.57;1.40;;;;;;;11.52;100.00;96687.66;4967269;28;20046;-72
2022/07/28 04:39:12;;;;;;;6.00;1.20;;;;;;;11.56;100.00;96693.31;4966380;28;20555;-72
2022/07/28 04:41:40;;;;;;;10.55;1.45;;;;;;;11.61;100.00;96688.03;4963963;28;20621;-72
2022/07/28 04:44:05;;;;;;;5.22;1.35;;;;;;;11.64;100.00;96693.69;4961825;28;20486;-72
2022/07/28 04:46:31;;;;;;;4.55;1.30;;;;;;;11.64;100.00;96692.91;4966962;28;20101;-72
2022/07/28 04:48:56;;;;;;;9.63;1.67;;;;;;;11.68;100.00;96686.00;4963468;28;20050;-72
2022/07/28 04:51:22;;;;;;;4.00;1.00;;;;;;;11.72;100.00;96687.09;4947023;28;20089;-72
2022/07/28 04:53:47;;;;;;;4.35;1.50;;;;;;;11.79;100.00;96682.34;4954601;28;20502;-72
2022/07/28 04:56:13;;;;;;;8.50;1.38;;;;;;;11.87;100.00;96681.13;4966405;28;20333;-72
2022/07/28 04:58:38;;;;;;;5.22;1.50;;;;;;;11.92;100.00;96683.88;4965203;28;20677;-72
2022/07/28 05:01:04;;;;;;;7.32;1.10;;;;;;;11.96;100.00;96688.47;4965926;28;20035;-72
2022/07/28 05:03:29;;;;;;;7.35;1.38;;;;;;;12.07;100.00;96686.72;4964457;28;20038;-72
2022/07/28 05:05:55;;;;;;;7.00;1.25;;;;;;;12.10;100.00;96678.16;4966022;28;20054;-71
2022/07/28 05:08:22;;;;;;;5.93;1.23;;;;;;;12.17;100.00;96677.97;4963179;28;20184;-72
2022/07/28 05:10:47;;;;;;;8.52;1.13;;;;;;;12.25;100.00;96681.00;4967444;28;20038;-72
2022/07/28 05:13:13;;;;;;;5.38;1.50;;;;;;;12.22;100.00;96672.66;4964194;28;20088;-72
2022/07/28 05:15:38;;;;;;;5.90;1.40;;;;;;;12.27;100.00;96676.19;4964892;28;20356;-72
2022/07/28 05:18:04;;;;;;;6.63;1.40;;;;;;;12.27;100.00;96686.91;4964136;28;20575;-72
2022/07/28 05:20:29;;;;;;;8.63;1.70;;;;;;;12.28;100.00;96685.03;4965649;28;20026;-71
2022/07/28 05:22:56;;;;;;;8.10;1.35;;;;;;;12.33;100.00;96684.31;4963617;28;20065;-72
2022/07/28 05:25:24;;;;;;;8.77;1.40;;;;;;;12.40;100.00;96691.09;4963108;28;20688;-72
2022/07/28 05:27:51;;;;;;;4.10;1.55;;;;;;;12.42;100.00;96685.44;4966510;28;20453;-72
2022/07/28 05:30:17;;;;;;;7.70;1.40;;;;;;;12.53;100.00;96693.34;4964310;28;20461;-72
2022/07/28 05:32:47;;;;;;;4.95;1.00;;;;;;;12.59;100.00;96679.97;4965944;28;20034;-72
2022/07/28 05:35:14;;;;;;;4.50;1.10;;;;;;;12.63;100.00;96681.91;4964435;28;20031;-72
2022/07/28 05:37:39;;;;;;;3.67;1.10;;;;;;;12.72;100.00;96674.19;4965081;28;20157;-72
2022/07/28 05:40:12;;;;;;;2.88;0.98;;;;;;;12.89;100.00;96682.91;4970892;28;20535;-72
2022/07/28 05:42:39;;;;;;;5.95;1.35;;;;;;;12.98;100.00;96688.59;4965714;28;20034;-72
2022/07/28 05:45:07;;;;;;;6.80;1.80;;;;;;;13.07;100.00;96689.72;4966224;28;20205;-72
2022/07/28 05:47:47;;;;;;;3.80;1.38;;;;;;;13.19;100.00;96692.25;4965224;28;20038;-72
2022/07/28 05:50:17;;;;;;;7.82;1.45;;;;;;;13.26;100.00;96695.53;4965529;28;20039;-72
2022/07/28 05:52:43;;;;;;;12.00;1.42;;;;;;;13.35;100.00;96683.22;4964440;28;20034;-72
2022/07/28 05:55:09;;;;;;;10.05;1.38;;;;;;;13.48;100.00;96680.09;4970393;28;20371;-72
2022/07/28 05:57:36;;;;;;;5.25;1.23;;;;;;;13.61;100.00;96682.28;4971681;28;20049;-72
2022/07/28 06:00:04;;;;;;;6.15;1.40;;;;;;;13.68;100.00;96681.22;4971120;28;20261;-72
2022/07/28 06:02:38;;;;;;;8.18;1.50;;;;;;;13.75;100.00;96682.59;4959090;28;20189;-72
2022/07/28 06:05:07;;;;;;;4.75;1.10;;;;;;;13.85;100.00;96673.75;4951517;28;20109;-72
2022/07/28 06:07:33;;;;;;;5.75;1.70;;;;;;;13.95;100.00;96676.50;4970393;28;20038;-71
2022/07/28 06:09:58;;;;;;;5.03;1.20;;;;;;;14.06;100.00;96674.66;4971105;28;20683;-71
2022/07/28 06:12:24;;;;;;;8.55;1.58;;;;;;;14.11;100.00;96678.16;4969132;28;20031;-72
2022/07/28 06:14:49;;;;;;;5.28;1.60;;;;;;;14.12;100.00;96687.84;4971991;28;20046;-72
2022/07/28 06:17:15;;;;;;;8.38;1.35;;;;;;;14.16;100.00;96672.81;4969575;28;20325;-72
2022/07/28 06:19:42;;;;;;;5.95;1.02;;;;;;;14.26;100.00;96679.28;4969961;28;20053;-72
2022/07/28 06:22:08;;;;;;;5.00;1.25;;;;;;;14.37;100.00;96679.00;4970709;28;20505;-72
2022/07/28 06:24:34;;;;;;;10.15;1.55;;;;;;;14.42;100.00;96692.50;4973256;28;20110;-72
2022/07/28 06:27:02;;;;;;;9.38;1.27;;;;;;;14.52;100.00;96680.16;4971320;28;20252;-72
2022/07/28 06:29:29;;;;;;;4.90;1.20;;;;;;;14.63;100.00;96677.22;4958930;28;20066;-72
2022/07/28 06:31:54;;;;;;;6.72;1.50;;;;;;;14.73;100.00;96679.91;4969023;28;20104;-72
2022/07/28 06:34:20;;;;;;;5.55;1.02;;;;;;;14.83;100.00;96675.59;4971289;28;20035;-72
2022/07/28 06:36:48;;;;;;;11.10;1.15;;;;;;;14.92;100.00;96682.03;4972067;28;20039;-72
2022/07/28 06:39:13;;;;;;;4.65;1.88;;;;;;;15.15;100.00;96670.69;4970343;28;20485;-72
2022/07/28 06:41:42;;;;;;;5.70;1.70;;;;;;;15.47;100.00;96674.94;4969864;28;20029;-72
2022/07/28 06:44:10;;;;;;;7.00;1.20;;;;;;;15.75;100.00;96677.03;4972359;28;20038;-72
2022/07/28 06:46:36;;;;;;;3.33;1.17;;;;;;;15.55;100.00;96674.38;4975518;28;20478;-72
2022/07/28 06:49:03;;;;;;;6.32;1.40;;;;;;;15.53;100.00;96684.63;4966840;28;20042;-72
2022/07/28 06:51:29;;;;;;;9.90;1.60;;;;;;;15.48;100.00;96687.34;4972839;28;20593;-72
2022/07/28 06:53:56;;;;;;;8.82;1.25;;;;;;;15.49;100.00;96686.28;4952712;28;20053;-72
2022/07/28 06:56:21;;;;;;;3.35;1.30;;;;;;;15.53;100.00;96690.84;4971721;28;20368;-73
2022/07/28 06:58:47;;;;;;;4.07;1.50;;;;;;;15.59;100.00;96687.03;4953952;28;20057;-72
2022/07/28 07:01:13;;;;;;;7.82;1.52;;;;;;;15.64;100.00;96696.22;4970532;28;20324;-72
2022/07/28 07:03:39;;;;;;;7.85;1.30;;;;;;;15.75;100.00;96690.53;4969798;28;20047;-72
2022/07/28 07:06:05;;;;;;;9.02;2.75;;;;;;;15.82;100.00;96692.94;4969280;28;20037;-72
2022/07/28 07:08:31;;;;;;;6.72;1.92;;;;;;;15.83;100.00;96689.16;4966611;28;20509;-72
2022/07/28 07:10:56;;;;;;;7.13;0.98;;;;;;;15.94;100.00;96696.09;4967897;28;20679;-72
2022/07/28 07:13:22;;;;;;;6.75;1.25;;;;;;;16.10;100.00;96694.94;4966415;28;20050;-72
2022/07/28 07:15:48;;;;;;;8.73;1.35;;;;;;;16.11;99.23;96696.59;4969939;28;20382;-72
2022/07/28 07:18:13;;;;;;;3.25;1.30;;;;;;;16.20;100.00;96696.00;4965626;28;20602;-72
2022/07/28 07:20:38;;;;;;;6.88;1.20;;;;;;;16.27;100.00;96693.81;4970305;28;20360;-72
2022/07/28 07:23:04;;;;;;;5.03;1.08;;;;;;;16.30;97.16;96696.75;4966809;28;20481;-72
2022/07/28 07:25:32;;;;;;;3.28;0.90;;;;;;;16.29;97.70;96694.31;4968000;28;20643;-72
2022/07/28 07:27:58;;;;;;;5.95;1.08;;;;;;;16.29;99.42;96700.53;4968000;28;20030;-72
2022/07/28 07:30:23;;;;;;;4.20;1.15;;;;;;;16.37;98.93;96699.94;4968614;28;20045;-72
2022/07/28 07:32:49;;;;;;;6.88;1.30;;;;;;;16.30;98.49;96694.03;4966806;28;20489;-72
2022/07/28 07:35:14;;;;;;;4.28;1.00;;;;;;;16.34;97.44;96689.72;4968042;28;20026;-72
2022/07/28 07:37:40;;;;;;;4.95;1.50;;;;;;;16.36;97.96;96684.84;4967540;28;20104;-72
2022/07/28 07:40:07;;;;;;;8.30;1.70;;;;;;;16.47;97.66;96682.06;4967140;28;20026;-72
2022/07/28 07:42:32;;;;;;;6.18;1.33;;;;;;;16.59;97.86;96683.34;4967818;28;20038;-72
2022/07/28 07:44:58;;;;;;;6.68;1.92;;;;;;;16.71;97.11;96672.19;4966844;28;20031;-72
2022/07/28 07:47:24;;;;;;;6.95;1.20;;;;;;;16.72;97.97;96668.38;4967797;28;20351;-72
2022/07/28 07:49:50;;;;;;;4.15;1.27;;;;;;;16.80;97.62;96670.47;4965450;28;20366;-72
2022/07/28 07:52:16;;;;;;;5.45;1.50;;;;;;;16.97;99.45;96672.81;4967103;28;20356;-72
2022/07/28 07:54:42;;;;;;;4.75;1.20;;;;;;;17.05;96.72;96661.38;4966424;28;20537;-73
2022/07/28 07:57:08;;;;;;;5.75;1.55;;;;;;;17.16;97.01;96662.88;4967640;28;20047;-72
2022/07/28 07:59:34;;;;;;;6.63;1.50;;;;;;;17.25;96.38;96665.75;4967692;28;20137;-72
2022/07/28 08:01:59;;;;;;;4.65;1.20;;;;;;;17.33;96.85;96662.44;4966081;28;20557;-72
2022/07/28 08:04:25;;;;;;;5.68;1.40;;;;;;;17.40;97.13;96657.50;4967203;28;20034;-72
2022/07/28 08:06:52;;;;;;;6.28;1.42;;;;;;;17.48;95.93;96664.97;4966721;28;20291;-72
2022/07/28 08:09:19;;;;;;;4.72;1.55;;;;;;;17.54;95.64;96660.31;4968458;28;20097;-73
2022/07/28 08:11:45;;;;;;;7.25;1.67;;;;;;;17.72;96.72;96664.19;4967882;28;20046;-72
2022/07/28 08:14:11;;;;;;;5.82;1.15;;;;;;;17.81;93.89;96662.47;4966009;28;20026;-72
2022/07/28 08:16:36;;;;;;;10.02;2.17;;;;;;;17.85;94.61;96663.50;4967561;28;20073;-72
2022/07/28 08:19:02;;;;;;;7.20;1.70;;;;;;;17.93;93.69;96660.16;4965768;28;20497;-73
2022/07/28 08:21:28;;;;;;;4.32;1.55;;;;;;;17.92;95.53;96665.84;4967888;28;20667;-72
2022/07/28 08:23:57;;;;;;;6.45;1.95;;;;;;;17.85;93.87;96663.50;4966162;28;20058;-72
2022/07/28 08:26:28;;;;;;;10.13;1.70;;;;;;;18.02;95.44;96671.94;4968523;28;20038;-72
2022/07/28 08:28:53;;;;;;;5.00;1.85;;;;;;;18.22;94.73;96656.53;4939098;28;20413;-72
2022/07/28 08:31:20;;;;;;;7.03;1.55;;;;;;;18.31;94.26;96660.19;4966418;28;20047;-72
2022/07/28 08:33:49;;;;;;;6.80;1.65;;;;;;;18.34;92.50;96659.59;4963973;28;20112;-72
2022/07/28 08:36:17;;;;;;;4.65;1.80;;;;;;;18.46;94.09;96665.38;4968217;28;20038;-72
2022/07/28 08:38:43;;;;;;;12.20;1.60;;;;;;;18.56;93.48;96661.72;4969260;28;20030;-72
2022/07/28 08:41:31;;;;;;;6.80;1.65;;;;;;;18.70;94.54;96659.91;4968988;28;20034;-72
2022/07/28 08:44:01;;;;;;;9.80;2.00;;;;;;;18.72;93.17;96654.19;4964287;28;20064;-72
2022/07/28 08:46:34;;;;;;;5.45;1.80;;;;;;;18.88;91.94;96666.38;4966538;28;20670;-72
2022/07/28 08:49:05;;;;;;;5.80;1.50;;;;;;;19.03;92.29;96662.63;4963617;28;20511;-72
2022/07/28 08:51:31;;;;;;;8.75;1.83;;;;;;;19.24;93.54;96668.50;4950835;28;20030;-72
2022/07/28 08:53:58;;;;;;;6.10;1.55;;;;;;;19.20;92.25;96660.94;4967836;28;20095;-72
2022/07/28 08:56:23;;;;;;;7.10;1.42;;;;;;;19.45;90.50;96662.41;4966012;28;20409;-72
2022/07/28 08:58:49;;;;;;;5.38;1.77;;;;;;;19.52;90.97;96661.97;4966882;28;20022;-72
2022/07/28 09:01:15;;;;;;;8.25;1.58;;;;;;;19.59;88.52;96662.41;4955999;28;20046;-72
2022/07/28 09:03:41;;;;;;;6.88;1.65;;;;;;;19.33;87.77;96663.97;4961960;28;20054;-72
2022/07/28 09:06:07;;;;;;;8.45;1.92;;;;;;;19.37;88.08;96662.25;4967019;28;20046;-73
2022/07/28 09:08:32;;;;;;;7.70;2.13;;;;;;;19.37;89.36;96659.56;4964102;28;20089;-73
2022/07/28 09:10:58;;;;;;;6.32;1.90;;;;;;;19.54;89.08;96657.06;4967524;28;20074;-72
2022/07/28 09:13:23;;;;;;;7.57;1.55;;;;;;;19.83;89.56;96661.41;4947288;28;20184;-72
2022/07/28 09:15:49;;;;;;;6.75;1.80;;;;;;;20.03;88.84;96659.09;4964555;28;20030;-72
2022/07/28 09:18:16;;;;;;;5.50;1.60;;;;;;;19.95;87.89;96648.13;4964938;28;20042;-72
2022/07/28 09:20:42;;;;;;;6.85;1.50;;;;;;;19.89;88.89;96650.16;4969045;28;20050;-72
2022/07/28 09:23:09;;;;;;;6.72;1.52;;;;;;;20.14;86.48;96651.50;4964825;28;20520;-72
2022/07/28 09:25:34;;;;;;;6.40;1.55;;;;;;;20.20;85.87;96655.72;4966323;28;20105;-72
2022/07/28 09:28:11;;;;;;;5.82;1.48;;;;;;;20.39;86.19;96658.31;4962159;28;20032;-72
2022/07/28 09:30:43;;;;;;;9.88;1.52;;;;;;;20.50;82.35;96651.56;4965895;28;20266;-73
2022/07/28 09:33:18;;;;;;;7.03;1.75;;;;;;;20.51;83.72;96652.38;4942002;28;20054;-72
2022/07/28 09:35:46;;;;;;;8.18;1.60;;;;;;;20.76;83.27;96649.03;4964608;28;20042;-72
2022/07/28 09:38:12;;;;;;;4.65;1.45;;;;;;;20.96;83.40;96644.22;4965029;28;20058;-72
2022/07/28 09:40:39;;;;;;;7.30;1.75;;;;;;;20.77;81.73;96642.47;4966109;28;20035;-73
2022/07/28 09:43:04;;;;;;;7.68;1.77;;;;;;;20.72;83.94;96637.19;4964518;28;20035;-72
2022/07/28 09:45:30;;;;;;;3.05;1.40;;;;;;;20.91;78.65;96636.19;4968837;28;20534;-72
2022/07/28 09:48:23;;;;;;;6.45;1.50;;;;;;;21.09;81.65;96637.91;4968366;28;20073;-73
2022/07/28 09:50:49;;;;;;;8.43;1.48;;;;;;;21.35;80.92;96633.41;4968183;28;20060;-72
2022/07/28 09:53:25;;;;;;;7.65;1.92;;;;;;;21.56;81.06;96633.69;4965904;28;20034;-72
2022/07/28 09:55:58;;;;;;;7.50;1.45;;;;;;;21.64;77.89;96632.09;4967033;28;20157;-72
2022/07/28 09:58:25;;;;;;;6.57;1.48;;;;;;;21.75;76.82;96627.97;4962477;28;20052;-72
2022/07/28 10:01:01;;;;;;;5.43;1.63;;;;;;;21.88;76.28;96631.69;4949464;28;20145;-72
2022/07/28 10:03:27;;;;;;;5.05;1.60;;;;;;;21.95;73.22;96630.13;4963901;28;20603;-72
2022/07/28 10:05:52;;;;;;;6.68;1.70;;;;;;;21.91;74.48;96631.84;4965754;28;20319;-73
2022/07/28 10:08:18;;;;;;;5.97;1.67;;;;;;;22.10;69.80;96623.44;4963244;28;20129;-72
2022/07/28 10:10:57;;;;;;;7.57;1.80;;;;;;;22.42;72.84;96629.56;4966460;28;20474;-72
2022/07/28 10:13:25;;;;;;;7.05;2.15;;;;;;;22.15;67.83;96626.00;4963604;28;20138;-72
2022/07/28 10:16:10;;;;;;;7.75;1.42;;;;;;;22.41;75.36;96631.50;4966345;28;20142;-73
2022/07/28 10:18:39;;;;;;;4.93;1.50;;;;;;;21.97;65.24;96624.34;4962264;28;20372;-73
2022/07/28 10:21:10;;;;;;;4.50;1.70;;;;;;;21.92;67.80;96628.00;4967320;28;20037;-73
2022/07/28 10:23:38;;;;;;;5.10;1.40;;;;;;;21.92;62.54;96616.31;4965604;28;20053;-73
2022/07/28 10:26:10;;;;;;;6.50;1.72;;;;;;;22.26;66.98;96618.34;4514670;28;10000453;-72
2022/07/28 10:28:42;;;;;;;6.35;1.45;;;;;;;22.07;61.43;96615.06;4961170;28;20778;-74
2022/07/28 10:31:13;;;;;;;6.15;1.42;;;;;;;22.29;60.20;96619.59;4964678;28;20047;-72
2022/07/28 10:33:49;;;;;;;8.52;1.50;;;;;;;22.64;65.22;96613.00;4962395;28;20378;-73
2022/07/28 10:36:21;;;;;;;5.65;1.50;;;;;;;22.87;56.30;96610.94;4966295;28;20038;-72
2022/07/28 10:38:53;;;;;;;2.88;1.20;;;;;;;22.49;50.67;96619.78;4963185;28;20033;-72
2022/07/28 10:41:20;;;;;;;5.32;1.50;;;;;;;22.61;56.70;96601.97;4966423;28;20061;-73
2022/07/28 10:43:47;;;;;;;6.63;1.50;;;;;;;23.21;58.63;96601.88;4966226;28;20045;-72
2022/07/28 10:46:13;;;;;;;5.22;1.40;;;;;;;23.19;48.80;96608.75;4967571;28;20030;-72
2022/07/28 10:48:39;;;;;;;8.50;1.63;;;;;;;23.27;48.66;96610.69;4964848;28;20401;-73
2022/07/28 10:51:05;;;;;;;8.80;1.58;;;;;;;23.56;49.96;96605.25;4967139;28;20473;-72
2022/07/28 10:53:44;;;;;;;8.18;1.50;;;;;;;23.66;54.98;96611.50;4965581;28;20038;-72
2022/07/28 10:56:16;;;;;;;4.03;1.33;;;;;;;24.77;45.40;96609.16;4966654;28;20053;-73
2022/07/28 10:59:09;;;;;;;5.60;1.42;;;;;;;25.21;39.95;96604.88;4963465;28;20077;-72
2022/07/28 11:01:37;;;;;;;5.35;1.55;;;;;;;25.17;43.22;96600.41;4966374;28;20034;-72
2022/07/28 11:04:04;;;;;;;5.30;1.58;;;;;;;24.93;46.10;96614.81;4966578;28;20039;-73
2022/07/28 11:06:39;;;;;;;7.40;1.90;;;;;;;24.44;43.34;96614.59;4964290;28;20441;-72
2022/07/28 11:09:16;;;;;;;7.03;1.63;;;;;;;25.39;42.96;96610.16;4966232;28;20026;-72
2022/07/28 11:11:50;;;;;;;15.63;2.25;;;;;;;24.73;42.82;96613.69;4967072;28;20051;-73
2022/07/28 11:14:22;;;;;;;4.22;1.45;;;;;;;24.89;43.62;96611.13;4966801;28;20108;-72
2022/07/28 11:17:00;;;;;;;4.35;1.60;;;;;;;25.34;44.91;96605.69;4965836;28;20039;-73
2022/07/28 11:19:28;;;;;;;6.15;1.52;;;;;;;26.54;42.03;96598.91;4965772;28;20030;-73
2022/07/28 11:22:17;;;;;;;6.72;1.42;;;;;;;27.00;36.49;96591.13;4969224;28;20039;-73
2022/07/28 11:25:04;;;;;;;8.32;1.60;;;;;;;27.02;35.18;96583.38;4967994;28;20045;-73
2022/07/28 11:27:39;;;;;;;7.05;1.35;;;;;;;28.14;34.16;96594.81;4967237;28;20034;-72
2022/07/28 11:30:12;;;;;;;6.95;1.40;;;;;;;28.49;33.58;96589.31;4967288;28;20105;-72
2022/07/28 11:32:52;;;;;;;5.95;1.48;;;;;;;28.86;32.77;96586.91;4962499;28;20282;-73
2022/07/28 11:35:21;;;;;;;5.10;1.48;;;;;;;30.94;30.61;96569.66;4968124;28;20410;-73
2022/07/28 11:38:04;;;;;;;5.15;1.73;;;;;;;33.00;26.82;96566.81;4965199;28;20124;-72